createdAt,value
2022-10-28T00:01:28.258Z,23.00
2022-10-28T00:06:36.615Z,23.00
2022-10-28T00:11:40.306Z,23.10
2022-10-28T00:16:43.864Z,23.10
2022-10-28T00:21:48.864Z,23.10
2022-10-28T00:26:52.506Z,23.10
2022-10-28T00:31:56.119Z,23.10
2022-10-28T00:37:01.138Z,23.10
2022-10-28T00:42:04.988Z,23.10
2022-10-28T00:47:18.123Z,23.10
2022-10-28T00:52:29.609Z,23.10
2022-10-28T00:57:37.428Z,23.10
2022-10-28T01:02:47.907Z,23.10
2022-10-28T01:07:57.379Z,23.10
2022-10-28T01:13:14.445Z,23.10
2022-10-28T01:18:29.207Z,23.10
2022-10-28T01:23:48.447Z,23.20
2022-10-28T01:30:00.062Z,23.10
2022-10-28T01:35:18.313Z,23.10
2022-10-28T01:40:30.797Z,23.10
2022-10-28T01:45:43.990Z,23.10
2022-10-28T01:50:57.447Z,23.10
2022-10-28T01:56:06.162Z,23.10
2022-10-28T02:01:12.155Z,23.10
2022-10-28T02:06:22.495Z,23.10
2022-10-28T02:12:26.933Z,23.10
2022-10-28T02:17:44.699Z,23.10
2022-10-28T02:22:55.819Z,23.20
2022-10-28T02:28:07.465Z,23.20
2022-10-28T02:33:18.051Z,23.10
2022-10-28T02:38:29.206Z,23.20
2022-10-28T02:43:37.093Z,23.10
2022-10-28T02:48:45.104Z,23.10
2022-10-28T02:54:01.619Z,23.10
2022-10-28T02:59:05.434Z,23.10
2022-10-28T03:04:09.011Z,23.10
2022-10-28T03:09:14.090Z,23.10
2022-10-28T03:14:18.083Z,23.10
2022-10-28T03:19:21.646Z,23.10
2022-10-28T03:24:26.691Z,23.10
2022-10-28T03:29:30.479Z,23.10
2022-10-28T03:34:34.004Z,23.10
2022-10-28T03:39:39.019Z,23.10
2022-10-28T03:44:43.316Z,23.10
2022-10-28T03:49:46.782Z,23.00
2022-10-28T03:54:51.873Z,23.00
2022-10-28T03:59:55.420Z,23.10
2022-10-28T04:04:59.026Z,23.00
2022-10-28T04:10:03.909Z,23.00
2022-10-28T04:15:09.087Z,23.00
2022-10-28T04:20:13.789Z,23.00
2022-10-28T04:25:19.148Z,23.00
2022-10-28T04:30:23.203Z,23.00
2022-10-28T04:35:27.603Z,23.10
2022-10-28T04:40:32.604Z,23.10
2022-10-28T04:45:36.210Z,23.10
2022-10-28T04:50:42.356Z,23.10
2022-10-28T04:55:50.211Z,23.10
2022-10-28T05:00:53.797Z,23.10
2022-10-28T05:05:57.293Z,23.10
2022-10-28T05:11:02.419Z,23.10
2022-10-28T05:16:07.414Z,23.10
2022-10-28T05:21:10.944Z,23.10
2022-10-28T05:26:16.128Z,23.00
2022-10-28T05:31:20.049Z,23.10
2022-10-28T05:36:23.596Z,23.10
2022-10-28T05:41:28.519Z,23.10
2022-10-28T05:46:32.102Z,23.10
2022-10-28T05:51:35.708Z,23.10
2022-10-28T05:56:40.673Z,23.10
2022-10-28T06:01:44.273Z,23.10
2022-10-28T06:06:48.058Z,23.20
2022-10-28T06:11:51.414Z,23.20
2022-10-28T06:16:55.008Z,23.30
2022-10-28T06:21:58.544Z,23.20
2022-10-28T06:27:06.750Z,23.30
2022-10-28T06:32:10.909Z,23.30
2022-10-28T06:37:14.751Z,23.20
2022-10-28T06:42:20.409Z,23.30
2022-10-28T06:47:25.661Z,23.30
2022-10-28T06:52:29.318Z,23.30
2022-10-28T06:57:34.329Z,23.30
2022-10-28T07:02:41.471Z,23.30
2022-10-28T07:07:48.171Z,23.30
2022-10-28T07:12:54.462Z,23.20
2022-10-28T07:18:00.483Z,23.30
2022-10-28T07:23:04.364Z,23.20
2022-10-28T07:28:09.800Z,23.30
2022-10-28T07:33:13.425Z,23.30
2022-10-28T07:38:17.695Z,23.30
2022-10-28T07:43:22.830Z,23.30
2022-10-28T07:48:26.578Z,23.30
2022-10-28T07:53:30.409Z,23.30
2022-10-28T07:58:35.664Z,23.30
2022-10-28T08:03:39.424Z,23.30
2022-10-28T08:08:43.194Z,23.30
2022-10-28T08:13:48.411Z,23.20
2022-10-28T08:18:53.135Z,23.20
2022-10-28T08:23:56.973Z,23.20
2022-10-28T08:29:02.110Z,23.10
2022-10-28T08:34:07.546Z,23.10
2022-10-28T08:39:11.293Z,23.10
2022-10-28T08:44:54.918Z,23.10
2022-10-28T08:50:05.123Z,23.10
2022-10-28T08:55:16.836Z,23.10
2022-10-28T09:00:27.220Z,23.10
2022-10-28T09:05:32.477Z,23.10
2022-10-28T09:11:12.608Z,23.10
2022-10-28T09:16:36.039Z,23.00
2022-10-28T09:21:49.210Z,23.00
2022-10-28T09:27:02.694Z,22.90
2022-10-28T09:32:19.597Z,22.90
2022-10-28T09:37:32.027Z,22.90
2022-10-28T09:42:45.782Z,22.90
2022-10-28T09:47:58.375Z,22.90
2022-10-28T09:53:12.994Z,22.90
2022-10-28T09:58:16.866Z,22.90
2022-10-28T10:03:21.898Z,22.90
2022-10-28T10:08:25.978Z,23.00
2022-10-28T10:13:36.420Z,23.00
2022-10-28T10:18:47.111Z,23.10
2022-10-28T10:23:50.744Z,23.10
2022-10-28T10:28:54.248Z,23.20
2022-10-28T10:34:00.256Z,23.20
2022-10-28T10:39:04.835Z,23.20
2022-10-28T10:44:33.865Z,23.30
2022-10-28T10:49:39.201Z,23.30
2022-10-28T10:54:59.240Z,23.30
2022-10-28T11:00:03.288Z,23.40
2022-10-28T11:05:11.218Z,23.40
2022-10-28T11:10:25.378Z,23.40
2022-10-28T11:15:31.124Z,23.40
2022-10-28T11:20:50.438Z,23.40
2022-10-28T11:25:56.415Z,23.40
2022-10-28T11:31:36.837Z,23.40
2022-10-28T11:36:54.551Z,23.40
2022-10-28T11:42:22.754Z,23.50
2022-10-28T11:48:11.516Z,23.50
2022-10-28T11:54:05.154Z,23.40
2022-10-28T11:59:35.929Z,23.40
2022-10-28T12:04:59.627Z,23.40
2022-10-28T12:10:33.428Z,23.40
2022-10-28T12:15:50.308Z,23.40
2022-10-28T12:21:02.461Z,23.40
2022-10-28T12:26:13.121Z,23.40
2022-10-28T12:31:24.567Z,23.40
2022-10-28T12:36:36.222Z,23.40
2022-10-28T12:41:57.640Z,23.40
2022-10-28T12:47:19.090Z,23.40
2022-10-28T12:52:44.252Z,23.40
2022-10-28T12:57:57.430Z,23.40
2022-10-28T13:03:07.718Z,23.40
2022-10-28T13:08:50.256Z,23.30
2022-10-28T13:14:02.156Z,23.40
2022-10-28T13:19:39.374Z,23.40
2022-10-28T13:25:00.107Z,23.40
2022-10-28T13:30:08.499Z,23.30
2022-10-28T13:35:16.697Z,23.30
2022-10-28T13:41:21.339Z,23.40
2022-10-28T13:47:28.667Z,23.30
2022-10-28T13:52:32.302Z,23.30
2022-10-28T13:57:39.369Z,23.40
2022-10-28T14:02:49.996Z,23.40
2022-10-28T14:07:58.099Z,23.40
2022-10-28T14:13:06.765Z,23.40
2022-10-28T14:24:14.464Z,23.40
2022-10-28T14:29:30.672Z,23.40
2022-10-28T14:34:44.384Z,23.40
2022-10-28T14:40:24.297Z,23.40
2022-10-28T14:45:39.740Z,23.40
2022-10-28T14:50:48.051Z,23.40
2022-10-28T14:56:01.286Z,23.40
2022-10-28T15:01:26.175Z,23.40
2022-10-28T15:06:42.403Z,23.40
2022-10-28T15:11:50.984Z,23.40
2022-10-28T15:16:55.357Z,23.40
2022-10-28T15:22:19.623Z,23.40
2022-10-28T15:27:27.554Z,23.40
2022-10-28T15:32:36.335Z,23.40
2022-10-28T15:37:41.195Z,23.40
2022-10-28T15:42:51.575Z,23.40
2022-10-28T15:47:58.380Z,23.40
2022-10-28T15:53:34.748Z,23.40
2022-10-28T15:58:41.549Z,23.40
2022-10-28T16:03:48.158Z,23.30
2022-10-28T16:09:07.901Z,23.40
2022-10-28T16:14:37.689Z,23.30
2022-10-28T16:19:47.240Z,23.30
2022-10-28T16:24:54.956Z,23.40
2022-10-28T16:29:59.056Z,23.40
2022-10-28T16:35:04.137Z,23.40
2022-10-28T16:40:37.634Z,23.30
2022-10-28T16:45:37.056Z,23.30
2022-10-28T16:50:41.402Z,23.40
2022-10-28T16:55:46.550Z,23.40
2022-10-28T17:00:50.229Z,23.40
2022-10-28T17:05:53.965Z,23.40
2022-10-28T17:10:58.803Z,23.40
2022-10-28T17:16:02.360Z,23.40
2022-10-28T17:21:06.277Z,23.40
2022-10-28T17:26:11.455Z,23.40
2022-10-28T17:31:18.116Z,23.30
2022-10-28T17:36:26.692Z,23.30
2022-10-28T17:41:31.673Z,23.30
2022-10-28T17:46:35.160Z,23.30
2022-10-28T17:51:39.326Z,23.30
2022-10-28T17:56:45.358Z,23.20
2022-10-28T18:01:48.823Z,23.20
2022-10-28T18:06:55.785Z,23.20
2022-10-28T18:12:02.009Z,23.10
2022-10-28T18:17:05.429Z,23.20
2022-10-28T18:22:08.865Z,23.20
2022-10-28T18:27:13.671Z,23.10
2022-10-28T18:32:17.168Z,23.10
2022-10-28T18:37:20.592Z,23.10
2022-10-28T18:42:25.367Z,23.10
2022-10-28T18:47:28.808Z,23.10
2022-10-28T18:52:32.340Z,23.10
2022-10-28T18:57:37.126Z,23.10
2022-10-28T19:02:44.885Z,23.10
2022-10-28T19:07:50.910Z,23.00
2022-10-28T19:12:55.632Z,23.10
2022-10-28T19:17:59.098Z,23.00
2022-10-28T19:23:02.872Z,23.00
2022-10-28T19:28:07.954Z,23.00
2022-10-28T19:33:11.480Z,23.00
2022-10-28T19:38:15.104Z,23.00
2022-10-28T19:43:20.360Z,23.00
2022-10-28T19:48:24.287Z,23.00
2022-10-28T19:53:27.929Z,23.00
2022-10-28T19:58:33.958Z,23.00
2022-10-28T20:03:39.241Z,23.00
2022-10-28T20:08:46.523Z,23.00
2022-10-28T20:13:54.785Z,23.00
2022-10-28T20:18:59.581Z,23.00
2022-10-28T20:24:07.137Z,23.00
2022-10-28T20:29:11.915Z,22.90
2022-10-28T20:34:15.458Z,22.90
2022-10-28T20:39:22.121Z,23.00
2022-10-28T20:44:27.605Z,22.90
2022-10-28T20:49:31.401Z,22.90
2022-10-28T20:54:34.949Z,22.90
2022-10-28T20:59:40.098Z,22.90
2022-10-28T21:04:43.623Z,22.90
2022-10-28T21:09:47.360Z,22.90
2022-10-28T21:14:52.268Z,22.90
2022-10-28T21:19:55.997Z,22.90
2022-10-28T21:25:02.034Z,22.90
2022-10-28T21:30:09.871Z,22.90
2022-10-28T21:35:13.504Z,22.80
2022-10-28T21:40:17.714Z,22.80
2022-10-28T21:45:24.380Z,22.80
2022-10-28T21:50:27.908Z,22.80
2022-10-28T21:55:45.998Z,22.90
2022-10-28T22:00:51.677Z,23.00
2022-10-28T22:05:55.322Z,23.10
2022-10-28T22:11:04.254Z,23.10
2022-10-28T22:16:13.583Z,23.10
2022-10-28T22:21:21.112Z,23.10
2022-10-28T22:26:26.708Z,23.10
2022-10-28T22:31:34.367Z,23.10
2022-10-28T22:36:37.979Z,23.20
2022-10-28T22:41:41.565Z,23.20
2022-10-28T22:46:46.494Z,23.20
2022-10-28T22:51:50.291Z,23.20
2022-10-28T22:56:53.869Z,23.20
2022-10-28T23:01:58.799Z,23.20
2022-10-28T23:07:02.792Z,23.20
2022-10-28T23:12:07.502Z,23.20
2022-10-28T23:17:12.358Z,23.30
2022-10-28T23:22:15.843Z,23.30
2022-10-28T23:27:19.370Z,23.20
2022-10-28T23:32:25.454Z,23.30
2022-10-28T23:37:29.066Z,23.20
2022-10-28T23:42:32.511Z,23.20
2022-10-28T23:47:37.492Z,23.30
2022-10-28T23:52:41.149Z,23.20
2022-10-28T23:57:44.688Z,23.30
